createdAt,value
2022-10-05T00:01:37.223Z,75.85
2022-10-05T00:04:43.564Z,75.80
2022-10-05T00:07:49.565Z,75.87
2022-10-05T00:10:56.079Z,75.80
2022-10-05T00:14:02.742Z,75.76
2022-10-05T00:17:11.866Z,75.96
2022-10-05T00:20:27.466Z,75.92
2022-10-05T00:23:34.403Z,75.96
2022-10-05T00:26:40.660Z,75.81
2022-10-05T00:29:47.304Z,75.88
2022-10-05T00:32:58.676Z,75.89
2022-10-05T00:36:07.559Z,75.86
2022-10-05T00:39:13.734Z,75.71
2022-10-05T00:42:38.693Z,75.90
2022-10-05T00:45:50.228Z,75.86
2022-10-05T00:49:05.137Z,75.82
2022-10-05T00:52:23.903Z,75.97
2022-10-05T00:55:42.176Z,75.87
2022-10-05T00:58:57.687Z,76.13
2022-10-05T01:02:13.993Z,76.20
2022-10-05T01:05:40.364Z,76.32
2022-10-05T01:08:59.583Z,76.40
2022-10-05T01:12:15.242Z,76.29
2022-10-05T01:15:26.552Z,76.34
2022-10-05T01:18:39.529Z,76.44
2022-10-05T01:21:54.635Z,76.68
2022-10-05T01:25:18.098Z,76.46
2022-10-05T01:28:29.838Z,76.50
2022-10-05T01:31:43.950Z,76.46
2022-10-05T01:34:58.957Z,76.43
2022-10-05T01:38:19.999Z,76.64
2022-10-05T01:41:35.738Z,76.49
2022-10-05T01:44:46.794Z,76.51
2022-10-05T01:47:58.376Z,76.64
2022-10-05T01:51:13.555Z,76.69
2022-10-05T01:54:33.752Z,76.72
2022-10-05T01:57:51.970Z,76.69
2022-10-05T02:01:06.474Z,76.95
2022-10-05T02:04:56.401Z,76.80
2022-10-05T02:07:54.127Z,76.68
2022-10-05T02:11:04.290Z,76.67
2022-10-05T02:14:13.555Z,76.83
2022-10-05T02:17:22.377Z,76.76
2022-10-05T02:20:33.130Z,77.01
2022-10-05T02:23:41.743Z,76.99
2022-10-05T02:26:49.399Z,77.05
2022-10-05T02:30:01.038Z,77.04
2022-10-05T02:33:12.372Z,76.99
2022-10-05T02:36:25.304Z,77.16
2022-10-05T02:39:40.059Z,77.21
2022-10-05T02:42:57.703Z,77.25
2022-10-05T02:46:15.411Z,77.23
2022-10-05T02:49:28.555Z,77.39
2022-10-05T02:52:46.509Z,77.50
2022-10-05T02:56:01.286Z,77.69
2022-10-05T02:59:14.927Z,77.61
2022-10-05T03:02:26.001Z,77.59
2022-10-05T03:05:38.942Z,77.54
2022-10-05T03:08:51.515Z,77.68
2022-10-05T03:12:06.815Z,77.82
2022-10-05T03:15:28.838Z,77.75
2022-10-05T03:18:55.196Z,77.78
2022-10-05T03:22:05.979Z,77.82
2022-10-05T03:25:37.496Z,77.93
2022-10-05T03:28:55.277Z,77.95
2022-10-05T03:32:09.280Z,78.07
2022-10-05T03:35:23.858Z,77.98
2022-10-05T03:38:40.573Z,77.85
2022-10-05T03:41:56.339Z,78.09
2022-10-05T03:45:10.446Z,78.12
2022-10-05T03:48:21.467Z,78.27
2022-10-05T03:51:33.506Z,78.22
2022-10-05T03:54:44.972Z,78.20
2022-10-05T03:57:53.812Z,78.26
2022-10-05T04:01:04.872Z,78.06
2022-10-05T04:04:20.445Z,78.10
2022-10-05T04:07:39.359Z,78.14
2022-10-05T04:10:50.489Z,78.23
2022-10-05T04:14:00.470Z,78.14
2022-10-05T04:17:12.648Z,78.45
2022-10-05T04:20:24.033Z,78.56
2022-10-05T04:23:39.966Z,78.46
2022-10-05T04:26:51.020Z,78.65
2022-10-05T04:30:00.239Z,78.73
2022-10-05T04:33:12.785Z,78.68
2022-10-05T04:36:28.252Z,78.71
2022-10-05T04:39:40.746Z,78.99
2022-10-05T04:42:57.766Z,78.89
2022-10-05T04:46:27.986Z,78.94
2022-10-05T04:50:00.373Z,79.05
2022-10-05T04:53:17.938Z,78.84
2022-10-05T04:56:32.171Z,79.04
2022-10-05T05:00:10.868Z,79.18
2022-10-05T05:03:39.642Z,79.06
2022-10-05T05:06:58.125Z,79.05
2022-10-05T05:10:45.192Z,79.18
2022-10-05T05:14:30.224Z,79.23
2022-10-05T05:17:56.162Z,79.31
2022-10-05T05:21:04.392Z,79.25
2022-10-05T05:24:20.868Z,79.41
2022-10-05T05:27:40.691Z,79.40
2022-10-05T05:30:50.942Z,79.42
2022-10-05T05:34:05.793Z,79.44
2022-10-05T05:37:23.453Z,79.64
2022-10-05T05:40:33.673Z,79.71
2022-10-05T05:44:01.284Z,79.79
2022-10-05T05:47:18.854Z,79.66
2022-10-05T05:50:42.749Z,79.89
2022-10-05T05:53:51.408Z,80.03
2022-10-05T05:57:09.158Z,80.04
2022-10-05T06:00:23.316Z,80.13
2022-10-05T06:03:37.343Z,80.28
2022-10-05T06:06:47.780Z,80.39
2022-10-05T06:10:00.140Z,80.38
2022-10-05T06:13:12.706Z,80.52
2022-10-05T06:16:25.789Z,80.76
2022-10-05T06:19:34.704Z,80.73
2022-10-05T06:22:45.004Z,80.85
2022-10-05T06:26:10.727Z,81.02
2022-10-05T06:29:22.231Z,80.96
2022-10-05T06:32:33.520Z,81.19
2022-10-05T06:35:51.658Z,81.14
2022-10-05T06:39:26.820Z,81.49
2022-10-05T06:43:18.032Z,81.58
2022-10-05T06:46:27.755Z,81.77
2022-10-05T06:49:38.628Z,81.72
2022-10-05T06:53:01.893Z,81.76
2022-10-05T06:56:15.169Z,81.95
2022-10-05T06:59:25.587Z,81.87
2022-10-05T07:02:41.100Z,81.86
2022-10-05T07:05:59.421Z,82.12
2022-10-05T07:09:27.936Z,82.26
2022-10-05T07:12:52.500Z,82.34
2022-10-05T07:16:05.718Z,82.47
2022-10-05T07:19:30.743Z,82.75
2022-10-05T07:23:08.130Z,82.62
2022-10-05T07:26:19.863Z,82.83
2022-10-05T07:29:34.924Z,82.92
2022-10-05T07:32:46.487Z,82.96
2022-10-05T07:36:17.858Z,82.95
2022-10-05T07:39:58.481Z,83.23
2022-10-05T07:43:07.738Z,83.21
2022-10-05T07:46:22.621Z,83.22
2022-10-05T07:49:38.897Z,83.33
2022-10-05T07:52:47.190Z,83.48
2022-10-05T07:55:55.963Z,83.36
2022-10-05T07:59:08.060Z,83.26
2022-10-05T08:02:25.302Z,83.30
2022-10-05T08:05:32.882Z,83.33
2022-10-05T08:08:50.515Z,83.23
2022-10-05T08:12:05.379Z,83.06
2022-10-05T08:15:17.127Z,82.88
2022-10-05T08:18:38.840Z,82.95
2022-10-05T08:21:49.639Z,82.77
2022-10-05T08:25:03.540Z,82.78
2022-10-05T08:28:19.886Z,82.69
2022-10-05T08:31:30.345Z,82.69
2022-10-05T08:34:47.201Z,82.66
2022-10-05T08:37:54.719Z,82.55
2022-10-05T08:41:23.735Z,82.63
2022-10-05T08:45:07.438Z,82.39
2022-10-05T08:48:43.509Z,82.32
2022-10-05T08:52:19.520Z,82.09
2022-10-05T08:55:39.665Z,82.11
2022-10-05T08:59:17.068Z,81.72
2022-10-05T09:02:29.647Z,81.53
2022-10-05T09:06:02.808Z,81.47
2022-10-05T09:09:28.325Z,81.30
2022-10-05T09:12:56.216Z,81.26
2022-10-05T09:16:37.273Z,80.93
2022-10-05T09:20:17.315Z,80.64
2022-10-05T09:23:39.344Z,80.22
2022-10-05T09:27:11.339Z,79.87
2022-10-05T09:30:24.635Z,79.63
2022-10-05T09:34:04.584Z,79.49
2022-10-05T09:37:31.167Z,79.37
2022-10-05T09:41:12.925Z,78.91
2022-10-05T09:45:04.637Z,78.87
2022-10-05T09:48:43.178Z,78.23
2022-10-05T09:52:16.419Z,78.14
2022-10-05T09:55:54.795Z,78.11
2022-10-05T09:59:27.933Z,77.90
2022-10-05T10:03:15.263Z,77.33
2022-10-05T10:10:19.413Z,76.74
2022-10-05T10:14:01.159Z,76.08
2022-10-05T10:17:30.923Z,75.96
2022-10-05T10:20:52.033Z,75.96
2022-10-05T10:24:06.544Z,75.67
2022-10-05T10:27:27.641Z,75.36
2022-10-05T10:30:55.587Z,75.14
2022-10-05T10:34:44.105Z,74.96
2022-10-05T10:38:28.685Z,74.52
2022-10-05T10:42:07.081Z,74.19
2022-10-05T10:45:38.906Z,73.88
2022-10-05T10:48:57.697Z,74.03
2022-10-05T10:52:23.245Z,73.91
2022-10-05T10:55:36.084Z,73.39
2022-10-05T10:59:05.881Z,73.26
2022-10-05T11:02:37.391Z,73.27
2022-10-05T11:06:03.899Z,73.19
2022-10-05T11:09:37.590Z,73.23
2022-10-05T11:13:18.276Z,72.92
2022-10-05T11:16:48.258Z,72.53
2022-10-05T11:20:13.473Z,72.57
2022-10-05T11:23:40.861Z,72.64
2022-10-05T11:27:03.735Z,72.43
2022-10-05T11:30:27.873Z,72.14
2022-10-05T11:33:58.139Z,71.93
2022-10-05T11:37:36.740Z,71.79
2022-10-05T11:41:02.599Z,71.67
2022-10-05T11:44:48.240Z,71.60
2022-10-05T11:48:18.148Z,71.16
2022-10-05T11:51:35.825Z,71.18
2022-10-05T11:55:11.984Z,71.01
2022-10-05T11:58:24.780Z,70.78
2022-10-05T12:01:35.230Z,70.70
2022-10-05T12:04:51.104Z,70.63
2022-10-05T12:08:11.865Z,70.54
2022-10-05T12:11:41.046Z,70.19
2022-10-05T12:14:59.211Z,70.30
2022-10-05T12:18:13.702Z,70.19
2022-10-05T12:21:30.913Z,70.09
2022-10-05T12:25:01.828Z,70.14
2022-10-05T12:28:14.027Z,69.83
2022-10-05T12:31:32.582Z,69.94
2022-10-05T12:34:52.829Z,69.66
2022-10-05T12:38:07.902Z,69.61
2022-10-05T12:41:23.673Z,69.56
2022-10-05T12:44:36.755Z,69.55
2022-10-05T12:47:57.051Z,69.40
2022-10-05T12:51:10.703Z,69.29
2022-10-05T12:54:25.151Z,68.97
2022-10-05T12:57:41.167Z,69.20
2022-10-05T13:00:57.464Z,68.99
2022-10-05T13:04:17.524Z,68.50
2022-10-05T13:07:40.407Z,68.61
2022-10-05T13:10:50.473Z,68.61
2022-10-05T13:14:09.478Z,68.47
2022-10-05T13:17:24.903Z,68.54
2022-10-05T13:20:35.419Z,68.72
2022-10-05T13:23:57.604Z,68.52
2022-10-05T13:27:08.585Z,68.27
2022-10-05T13:30:19.903Z,68.07
2022-10-05T13:33:37.920Z,68.11
2022-10-05T13:36:56.603Z,68.15
2022-10-05T13:40:25.656Z,68.00
2022-10-05T13:43:40.366Z,67.81
2022-10-05T13:46:50.190Z,67.70
2022-10-05T13:49:59.231Z,67.42
2022-10-05T13:53:18.182Z,67.51
2022-10-05T13:56:30.686Z,67.67
2022-10-05T13:59:45.670Z,67.44
2022-10-05T14:02:53.614Z,67.06
2022-10-05T14:06:02.181Z,67.18
2022-10-05T14:09:28.039Z,67.04
2022-10-05T14:12:42.561Z,67.11
2022-10-05T14:16:04.903Z,66.94
2022-10-05T14:19:22.028Z,66.96
2022-10-05T14:22:29.374Z,66.61
2022-10-05T14:25:53.985Z,66.59
2022-10-05T14:29:16.679Z,66.73
2022-10-05T14:32:27.196Z,66.36
2022-10-05T14:35:45.986Z,66.37
2022-10-05T14:39:00.832Z,66.35
2022-10-05T14:42:16.951Z,66.38
2022-10-05T14:45:25.995Z,66.43
2022-10-05T14:48:42.927Z,65.97
2022-10-05T14:51:49.416Z,66.15
2022-10-05T14:55:04.645Z,66.20
2022-10-05T14:58:29.344Z,66.06
2022-10-05T15:01:37.332Z,66.00
2022-10-05T15:04:50.047Z,65.93
2022-10-05T15:08:01.778Z,65.94
2022-10-05T15:11:12.971Z,65.86
2022-10-05T15:14:21.528Z,65.83
2022-10-05T15:17:35.116Z,65.72
2022-10-05T15:20:49.500Z,65.75
2022-10-05T15:23:58.737Z,65.82
2022-10-05T15:27:07.244Z,65.93
2022-10-05T15:30:18.293Z,65.88
2022-10-05T15:33:32.955Z,65.86
2022-10-05T15:36:44.504Z,65.97
2022-10-05T15:39:56.136Z,65.55
2022-10-05T15:43:11.618Z,65.72
2022-10-05T15:46:23.655Z,65.67
2022-10-05T15:49:40.469Z,65.88
2022-10-05T15:52:51.614Z,65.79
2022-10-05T15:56:01.367Z,65.82
2022-10-05T15:59:18.668Z,65.84
2022-10-05T16:02:30.878Z,65.79
2022-10-05T16:06:04.505Z,65.94
2022-10-05T16:09:24.719Z,65.66
2022-10-05T16:12:44.873Z,65.76
2022-10-05T16:15:59.504Z,65.77
2022-10-05T16:19:16.896Z,65.86
2022-10-05T16:22:29.736Z,65.67
2022-10-05T16:25:47.136Z,65.72
2022-10-05T16:29:01.374Z,65.86
2022-10-05T16:32:13.833Z,65.92
2022-10-05T16:35:32.159Z,66.06
2022-10-05T16:38:47.475Z,65.94
2022-10-05T16:42:04.020Z,66.22
2022-10-05T16:45:24.750Z,66.23
2022-10-05T16:48:36.430Z,66.05
2022-10-05T16:51:54.557Z,66.31
2022-10-05T16:55:04.007Z,66.10
2022-10-05T16:58:19.588Z,66.25
2022-10-05T17:01:43.850Z,66.22
2022-10-05T17:05:00.929Z,66.45
2022-10-05T17:08:27.929Z,66.33
2022-10-05T17:11:46.822Z,66.50
2022-10-05T17:15:10.355Z,66.54
2022-10-05T17:18:33.852Z,66.63
2022-10-05T17:21:46.991Z,66.41
2022-10-05T17:25:05.003Z,66.32
2022-10-05T17:28:37.567Z,66.44
2022-10-05T17:32:11.074Z,66.48
2022-10-05T17:35:20.486Z,66.44
2022-10-05T17:38:47.016Z,66.42
2022-10-05T17:41:54.160Z,66.33
2022-10-05T17:45:02.724Z,66.37
2022-10-05T17:48:12.320Z,66.28
2022-10-05T17:52:13.801Z,66.52
2022-10-05T17:55:38.500Z,66.21
2022-10-05T17:59:06.862Z,66.28
2022-10-05T18:02:26.826Z,66.14
2022-10-05T18:05:33.377Z,66.10
2022-10-05T18:08:44.130Z,66.06
2022-10-05T18:12:25.947Z,65.99
2022-10-05T18:15:50.352Z,65.93
2022-10-05T18:19:00.266Z,65.93
2022-10-05T18:22:30.390Z,65.93
2022-10-05T18:25:45.559Z,65.80
2022-10-05T18:29:14.128Z,65.80
2022-10-05T18:32:29.121Z,65.67
2022-10-05T18:35:47.076Z,65.58
2022-10-05T18:39:01.622Z,65.83
2022-10-05T18:42:15.975Z,65.76
2022-10-05T18:45:27.388Z,65.70
2022-10-05T18:48:41.511Z,65.48
2022-10-05T18:51:55.358Z,65.59
2022-10-05T18:55:12.205Z,65.54
2022-10-05T18:58:27.225Z,65.55
2022-10-05T19:02:12.179Z,65.57
2022-10-05T19:05:47.492Z,65.73
2022-10-05T19:09:04.014Z,65.61
2022-10-05T19:12:18.671Z,65.56
2022-10-05T19:15:31.184Z,65.39
2022-10-05T19:18:52.199Z,65.58
2022-10-05T19:22:08.148Z,65.33
2022-10-05T19:25:29.980Z,65.53
2022-10-05T19:28:40.000Z,65.43
2022-10-05T19:31:51.565Z,65.18
2022-10-05T19:35:14.378Z,65.23
2022-10-05T19:38:28.126Z,65.12
2022-10-05T19:41:52.176Z,65.22
2022-10-05T19:45:11.094Z,65.05
2022-10-05T19:48:28.271Z,64.99
2022-10-05T19:51:48.396Z,64.97
2022-10-05T19:55:12.668Z,64.95
2022-10-05T19:58:24.569Z,64.87
2022-10-05T20:01:34.142Z,64.97
2022-10-05T20:04:42.322Z,65.00
2022-10-05T20:07:48.607Z,64.96
2022-10-05T20:11:10.917Z,65.14
2022-10-05T20:14:30.042Z,64.99
2022-10-05T20:17:53.773Z,65.05
2022-10-05T20:21:00.743Z,64.98
2022-10-05T20:24:15.639Z,65.01
2022-10-05T20:27:48.554Z,65.02
2022-10-05T20:30:55.486Z,65.20
2022-10-05T20:34:03.173Z,65.15
2022-10-05T20:37:09.561Z,65.08
2022-10-05T20:40:17.982Z,65.23
2022-10-05T20:43:24.218Z,65.25
2022-10-05T20:46:31.132Z,65.21
2022-10-05T20:49:38.339Z,65.39
2022-10-05T20:52:44.619Z,65.37
2022-10-05T20:55:50.820Z,65.42
2022-10-05T20:58:56.963Z,65.53
2022-10-05T21:02:01.845Z,65.54
2022-10-05T21:05:09.857Z,65.55
2022-10-05T21:08:17.962Z,65.57
2022-10-05T21:11:24.229Z,65.54
2022-10-05T21:14:34.463Z,65.61
2022-10-05T21:17:40.822Z,65.69
2022-10-05T21:20:50.711Z,65.76
2022-10-05T21:23:56.974Z,65.81
2022-10-05T21:27:03.280Z,65.92
2022-10-05T21:30:11.366Z,65.92
2022-10-05T21:33:17.644Z,65.84
2022-10-05T21:36:24.796Z,66.07
2022-10-05T21:39:31.247Z,66.12
2022-10-05T21:42:37.515Z,66.12
2022-10-05T21:45:45.060Z,66.20
2022-10-05T21:48:51.818Z,66.10
2022-10-05T21:51:58.030Z,66.28
2022-10-05T21:55:04.972Z,66.37
2022-10-05T21:58:12.683Z,66.42
2022-10-05T22:01:22.675Z,66.44
2022-10-05T22:04:29.444Z,66.46
2022-10-05T22:07:36.343Z,66.60
2022-10-05T22:10:43.982Z,66.65
2022-10-05T22:13:51.439Z,66.61
2022-10-05T22:16:57.571Z,66.82
2022-10-05T22:20:02.352Z,66.90
2022-10-05T22:23:08.488Z,66.85
2022-10-05T22:26:14.400Z,66.86
2022-10-05T22:29:21.612Z,67.01
2022-10-05T22:32:27.938Z,67.04
2022-10-05T22:35:35.844Z,66.90
2022-10-05T22:38:42.032Z,67.01
2022-10-05T22:41:46.547Z,67.02
2022-10-05T22:44:52.692Z,66.87
2022-10-05T22:47:57.220Z,66.91
2022-10-05T22:51:03.491Z,67.14
2022-10-05T22:54:09.711Z,67.05
2022-10-05T22:57:15.929Z,67.28
2022-10-05T23:00:27.573Z,67.40
2022-10-05T23:03:34.897Z,67.30
2022-10-05T23:06:41.077Z,67.48
2022-10-05T23:09:45.691Z,67.44
2022-10-05T23:13:00.993Z,67.53
2022-10-05T23:16:11.910Z,67.67
2022-10-05T23:19:18.224Z,67.61
2022-10-05T23:22:25.437Z,67.69
2022-10-05T23:25:31.655Z,67.74
2022-10-05T23:28:36.261Z,67.80
2022-10-05T23:31:42.458Z,67.88
2022-10-05T23:34:46.902Z,67.90
2022-10-05T23:37:53.025Z,67.93
2022-10-05T23:40:58.162Z,68.06
2022-10-05T23:44:04.349Z,67.99
2022-10-05T23:47:08.873Z,68.27
2022-10-05T23:50:14.976Z,68.15
2022-10-05T23:53:19.810Z,68.16
2022-10-05T23:56:26.018Z,68.32
2022-10-05T23:59:30.559Z,68.39
